This is the latest recevied weather packets stored in our database for station/object KR8N. If no packets are shown the sender has not sent any weather packets the latest 10 day(s).
| Time | Temp. | Humidity | Pressure | Rain* | Wind** | Luminosity | Snow |
|---|---|---|---|---|---|---|---|
| 1777822338 | 10° C | 36% | 1022.9 hPa | 0 mm | - | 787 W/m² | - |
| 1777822035 | 8.89° C | 44% | 1023.3 hPa | 0 mm | - | 777 W/m² | - |
| 1777821733 | 10° C | 37% | 1022.7 hPa | 0 mm | - | 765 W/m² | - |
| 1777821430 | 8.89° C | 46% | 1022.9 hPa | 0 mm | - | 756 W/m² | - |
| 1777821127 | 8.89° C | 40% | 1022.8 hPa | 0 mm | - | 740 W/m² | - |
| 1777820824 | 8.89° C | 43% | 1023 hPa | 0 mm | - | 730 W/m² | - |
| 1777820520 | 8.89° C | 42% | 1022.8 hPa | 0 mm | - | 715 W/m² | - |
| 1777820217 | 8.33° C | 42% | 1023 hPa | 0 mm | - | 705 W/m² | - |
| 1777819914 | 8.89° C | 40% | 1022.8 hPa | 0 mm | - | 691 W/m² | - |
| 1777819611 | 8.33° C | 40% | 1022.9 hPa | 0 mm | - | 677 W/m² | - |
| 1777819309 | 8.33° C | 41% | 1022.9 hPa | 0 mm | - | 662 W/m² | - |
| 1777819005 | 8.89° C | 40% | 1023 hPa | 0 mm | - | 650 W/m² | - |
| 1777818703 | 8.33° C | 40% | 1023 hPa | 0 mm | - | 633 W/m² | - |
| 1777818399 | 7.78° C | 43% | 1023 hPa | 0 mm | - | 615 W/m² | - |
| 1777818096 | 7.78° C | 44% | 1023 hPa | 0 mm | - | 602 W/m² | - |
| 1777817793 | 8.33° C | 47% | 1023 hPa | 0 mm | - | 591 W/m² | - |
| 1777817491 | 7.78° C | 42% | 1022.9 hPa | 0 mm | - | 578 W/m² | - |
| 1777817186 | 7.78° C | 45% | 1023.3 hPa | 0 mm | - | 558 W/m² | - |
| 1777816884 | 7.78° C | 43% | 1023 hPa | 0 mm | - | 550 W/m² | - |
| 1777816581 | 7.22° C | 44% | 1023 hPa | 0 mm | - | 528 W/m² | - |
| 1777816278 | 7.22° C | 47% | 1023 hPa | 0 mm | - | 467 W/m² | - |
| 1777815975 | 6.67° C | 50% | 1023.2 hPa | 0 mm | - | 489 W/m² | - |
| 1777815672 | 6.67° C | 45% | 1022.9 hPa | 0 mm | - | 476 W/m² | - |
| 1777815370 | 6.11° C | 49% | 1023 hPa | 0 mm | - | 308 W/m² | - |
| 1777815067 | 6.11° C | 45% | 1023 hPa | 0 mm | - | 429 W/m² | - |
* Rain latest hour (hover to see other rain measurements)
** Current wind speed in m/s (hover to see current wind gust speed)